Time;durP1;ratioP1;P1;durP2;ratioP2;P2;SDS_P1;SDS_P2;PMS_P1;PMS_P2;Temp;Humidity;BMP_temperature;BMP_pressure;BME280_temperature;BME280_humidity;BME280_pressure;Samples;Min_cycle;Max_cycle;Signal;HPM_P1;HPM_P2
2022/03/27 00:01:40;;;;;;;10.73;9.93;;;7.90;1.00;;;;;;6259334;28;20295;-52
2022/03/27 00:04:43;;;;;;;10.67;9.97;;;7.80;1.00;;;;;;6270829;28;20241;-51
2022/03/27 00:07:45;;;;;;;10.93;10.13;;;7.80;1.00;;;;;;6267192;28;20277;-54
2022/03/27 00:14:13;;;;;;;10.60;9.77;;;7.70;1.00;;;;;;6274182;28;20732;-52
2022/03/27 00:17:18;;;;;;;10.70;9.70;;;7.70;1.00;;;;;;6257633;28;20258;-52
2022/03/27 00:20:21;;;;;;;11.73;10.70;;;7.70;1.00;;;;;;6257827;28;20233;-52
2022/03/27 00:23:24;;;;;;;11.07;10.27;;;7.70;1.00;;;;;;6257408;28;20732;-52
2022/03/27 00:26:28;;;;;;;10.67;9.77;;;7.60;1.00;;;;;;6281417;28;20308;-52
2022/03/27 00:29:31;;;;;;;12.53;11.30;;;7.60;1.00;;;;;;6282135;28;20320;-52
2022/03/27 00:32:36;;;;;;;11.83;10.90;;;7.60;1.00;;;;;;6273067;28;20784;-52
2022/03/27 00:35:39;;;;;;;11.07;10.17;;;7.70;1.00;;;;;;6275031;28;20322;-52
2022/03/27 00:38:46;;;;;;;11.43;10.53;;;7.50;1.00;;;;;;6282887;28;20308;-53
2022/03/27 00:41:51;;;;;;;11.20;10.30;;;7.50;1.00;;;;;;6274850;28;20237;-52
2022/03/27 00:44:54;;;;;;;11.03;10.13;;;7.40;1.00;;;;;;6281794;28;20733;-52
2022/03/27 00:47:57;;;;;;;10.93;10.13;;;7.40;1.00;;;;;;6272868;28;20256;-52
2022/03/27 00:50:59;;;;;;;10.93;10.10;;;7.40;1.00;;;;;;6258016;28;20262;-52
2022/03/27 00:54:03;;;;;;;10.57;9.73;;;7.30;1.00;;;;;;6257784;28;20272;-51
2022/03/27 00:57:08;;;;;;;10.60;9.80;;;7.30;1.00;;;;;;6278592;28;20248;-52
2022/03/27 01:00:21;;;;;;;10.27;9.53;;;7.40;1.00;;;;;;6278323;28;20233;-52
2022/03/27 01:03:26;;;;;;;11.87;10.87;;;7.30;1.00;;;;;;6261652;28;20242;-53
2022/03/27 01:06:31;;;;;;;11.03;10.13;;;7.30;1.00;;;;;;6281891;28;20334;-52
2022/03/27 01:09:40;;;;;;;13.50;12.30;;;7.20;1.00;;;;;;6283010;28;20814;-51
2022/03/27 01:12:45;;;;;;;12.63;11.60;;;7.20;1.00;;;;;;6277209;28;20260;-53
2022/03/27 01:15:54;;;;;;;11.73;10.77;;;7.20;1.00;;;;;;6288951;28;20712;-53
2022/03/27 01:18:56;;;;;;;13.83;12.43;;;7.10;1.00;;;;;;6273938;28;20253;-52
2022/03/27 01:22:01;;;;;;;13.17;11.93;;;7.10;1.00;;;;;;6262243;28;20493;-51
2022/03/27 01:25:05;;;;;;;13.20;12.07;;;7.10;1.00;;;;;;6273946;28;20236;-52
2022/03/27 01:28:12;;;;;;;12.57;11.47;;;7.00;1.00;;;;;;6272590;28;20230;-51
2022/03/27 01:31:15;;;;;;;13.70;12.50;;;7.00;1.00;;;;;;6262548;28;20452;-51
2022/03/27 01:34:30;;;;;;;13.27;12.10;;;7.00;1.00;;;;;;6271409;28;20252;-51
2022/03/27 01:37:34;;;;;;;13.50;12.27;;;6.80;1.00;;;;;;6277270;28;20240;-52
2022/03/27 01:40:37;;;;;;;14.70;13.17;;;7.10;1.00;;;;;;6267486;28;20568;-52
2022/03/27 01:43:39;;;;;;;13.37;12.17;;;7.20;1.00;;;;;;6278328;28;20314;-53
2022/03/27 01:46:44;;;;;;;12.47;11.37;;;6.90;1.00;;;;;;6261408;28;20261;-53
2022/03/27 01:49:47;;;;;;;12.07;10.93;;;6.90;1.00;;;;;;6262022;28;20324;-52
2022/03/27 01:52:51;;;;;;;12.70;11.53;;;6.80;1.00;;;;;;6261954;28;20312;-53
2022/03/27 01:55:54;;;;;;;12.10;11.20;;;6.80;1.00;;;;;;6266759;28;20563;-52
2022/03/27 01:59:12;;;;;;;12.83;11.50;;;6.90;1.00;;;;;;6286422;28;20232;-52
2022/03/27 02:02:17;;;;;;;10.53;9.80;;;6.80;1.00;;;;;;6287319;28;20240;-51
2022/03/27 02:05:20;;;;;;;12.90;11.70;;;6.80;1.00;;;;;;6281599;28;20388;-53
2022/03/27 02:08:26;;;;;;;11.77;10.90;;;7.00;1.00;;;;;;6290463;28;20246;-52
2022/03/27 02:11:31;;;;;;;11.73;10.83;;;6.70;1.00;;;;;;6289140;28;20257;-52
2022/03/27 02:14:34;;;;;;;11.97;10.97;;;6.80;1.00;;;;;;6272134;28;20324;-52
2022/03/27 02:17:39;;;;;;;11.83;10.83;;;6.70;1.00;;;;;;6261242;28;20234;-52
2022/03/27 02:20:44;;;;;;;12.77;11.67;;;6.80;1.00;;;;;;6260869;28;20233;-52
2022/03/27 02:23:48;;;;;;;11.63;10.73;;;6.70;1.00;;;;;;6252951;28;20236;-52
2022/03/27 02:26:51;;;;;;;12.40;11.33;;;6.60;1.00;;;;;;6279556;28;20728;-52
2022/03/27 02:29:54;;;;;;;11.57;10.63;;;6.60;1.00;;;;;;6281624;28;20229;-51
2022/03/27 02:32:57;;;;;;;12.40;11.30;;;6.60;1.00;;;;;;6303588;28;20305;-53
2022/03/27 02:36:00;;;;;;;11.50;10.60;;;6.80;1.00;;;;;;6282402;28;20344;-52
2022/03/27 02:39:05;;;;;;;14.70;13.40;;;6.70;1.00;;;;;;6285215;28;20467;-54
2022/03/27 02:42:08;;;;;;;12.67;11.57;;;6.50;1.00;;;;;;6281980;28;20233;-52
2022/03/27 02:45:14;;;;;;;11.97;10.97;;;6.50;1.00;;;;;;6281361;28;20340;-52
2022/03/27 02:48:17;;;;;;;14.40;13.10;;;6.50;1.00;;;;;;6280902;28;20279;-53
2022/03/27 02:51:20;;;;;;;13.60;12.30;;;6.40;1.00;;;;;;6271586;28;20741;-51
2022/03/27 02:54:24;;;;;;;13.97;12.77;;;6.50;1.00;;;;;;6260331;28;20320;-53
2022/03/27 02:57:27;;;;;;;13.70;12.40;;;6.60;1.00;;;;;;6282200;28;20700;-52
2022/03/27 03:00:30;;;;;;;12.70;11.70;;;6.40;1.00;;;;;;6271863;28;20257;-52
2022/03/27 03:03:33;;;;;;;13.50;12.30;;;6.40;1.00;;;;;;6262761;28;20730;-52
2022/03/27 03:06:35;;;;;;;14.70;13.37;;;6.60;1.00;;;;;;6285109;28;20245;-52
2022/03/27 03:09:40;;;;;;;12.50;11.50;;;6.40;1.00;;;;;;6271132;28;20238;-52
2022/03/27 03:13:08;;;;;;;14.90;13.57;;;6.40;1.00;;;;;;6276645;28;20342;-52
2022/03/27 03:16:35;;;;;;;11.83;10.93;;;6.40;1.00;;;;;;6261032;28;20333;-52
2022/03/27 03:19:38;;;;;;;12.37;11.27;;;6.30;1.00;;;;;;6284662;28;20333;-53
2022/03/27 03:22:41;;;;;;;13.47;12.27;;;6.50;1.00;;;;;;6283873;28;20733;-52
2022/03/27 03:25:46;;;;;;;13.00;11.97;;;6.50;1.00;;;;;;6281869;28;20276;-51
2022/03/27 03:29:08;;;;;;;12.80;11.80;;;6.30;1.00;;;;;;6258331;28;20253;-52
2022/03/27 03:32:11;;;;;;;12.87;11.80;;;6.30;1.00;;;;;;6259305;28;20304;-51
2022/03/27 03:35:16;;;;;;;13.40;12.33;;;6.20;1.00;;;;;;6278843;28;20229;-53
2022/03/27 03:38:39;;;;;;;13.10;12.07;;;6.20;1.00;;;;;;6282987;28;20237;-52
2022/03/27 03:41:43;;;;;;;14.97;13.47;;;6.20;1.00;;;;;;6283986;28;20240;-52
2022/03/27 03:44:58;;;;;;;13.43;12.33;;;6.20;1.00;;;;;;6269312;28;20242;-52
2022/03/27 03:48:01;;;;;;;13.27;12.17;;;6.20;1.00;;;;;;6258989;28;20321;-51
2022/03/27 03:51:03;;;;;;;13.47;12.27;;;6.20;1.00;;;;;;6272139;28;20234;-52
2022/03/27 03:54:07;;;;;;;14.37;13.07;;;6.20;1.00;;;;;;6271163;28;20332;-52
2022/03/27 03:57:11;;;;;;;16.40;14.80;;;6.20;1.00;;;;;;6274955;28;20217;-52
2022/03/27 04:00:15;;;;;;;15.47;13.90;;;6.10;1.00;;;;;;6272003;28;20229;-52
2022/03/27 04:03:17;;;;;;;16.13;14.43;;;6.10;1.00;;;;;;6275891;28;20241;-52
2022/03/27 04:06:22;;;;;;;15.13;13.70;;;6.00;1.00;;;;;;6277106;28;20241;-52
2022/03/27 04:09:25;;;;;;;15.30;14.07;;;6.20;1.00;;;;;;6268148;28;20329;-52
2022/03/27 04:12:29;;;;;;;15.47;13.87;;;5.90;1.00;;;;;;6280947;28;20625;-51
2022/03/27 04:15:32;;;;;;;17.77;15.97;;;6.00;1.00;;;;;;6250829;28;20514;-52
2022/03/27 04:18:56;;;;;;;16.87;15.17;;;6.30;1.00;;;;;;6247797;28;20234;-51
2022/03/27 04:22:00;;;;;;;18.57;16.77;;;6.20;1.00;;;;;;6248106;28;20302;-52
2022/03/27 04:25:03;;;;;;;23.23;20.73;;;6.30;1.00;;;;;;6250251;28;20238;-52
2022/03/27 04:28:10;;;;;;;25.20;21.47;;;6.00;1.00;;;;;;6258132;28;20248;-51
2022/03/27 04:31:14;;;;;;;21.77;19.47;;;6.20;1.00;;;;;;6273515;28;20225;-53
2022/03/27 04:34:18;;;;;;;21.83;19.57;;;5.90;1.00;;;;;;6266188;28;20233;-52
2022/03/27 04:37:20;;;;;;;21.50;19.30;;;6.00;1.00;;;;;;6258884;28;20667;-52
2022/03/27 04:40:23;;;;;;;20.80;18.90;;;5.90;1.00;;;;;;6267858;28;20870;-52
2022/03/27 04:43:29;;;;;;;20.57;18.67;;;5.90;1.00;;;;;;6263047;28;20392;-52
2022/03/27 04:46:31;;;;;;;20.07;18.27;;;5.80;1.00;;;;;;6287926;28;20474;-51
2022/03/27 04:49:35;;;;;;;20.90;18.70;;;5.80;1.00;;;;;;6270808;28;20340;-53
2022/03/27 04:52:38;;;;;;;20.97;18.87;;;6.00;1.00;;;;;;6277118;28;20721;-52
2022/03/27 04:55:41;;;;;;;24.40;21.20;;;5.80;1.00;;;;;;6281685;28;20458;-52
2022/03/27 04:58:45;;;;;;;22.80;20.40;;;5.80;1.00;;;;;;6283630;28;20584;-52
2022/03/27 05:01:48;;;;;;;24.17;20.50;;;5.80;1.00;;;;;;6282217;28;20709;-52
2022/03/27 05:04:51;;;;;;;22.40;20.20;;;5.80;1.00;;;;;;6286202;28;20753;-52
2022/03/27 05:07:54;;;;;;;25.53;21.63;;;6.20;1.00;;;;;;6263204;28;20319;-51
2022/03/27 05:10:57;;;;;;;21.60;19.37;;;6.00;1.00;;;;;;6273056;28;20237;-52
2022/03/27 05:14:01;;;;;;;23.77;21.13;;;6.10;1.00;;;;;;6259204;28;20306;-51
2022/03/27 05:17:05;;;;;;;24.07;21.53;;;6.00;1.00;;;;;;6254685;28;20313;-52
2022/03/27 05:20:09;;;;;;;23.17;20.80;;;6.00;1.00;;;;;;6261686;28;20698;-52
2022/03/27 05:23:11;;;;;;;21.73;19.53;;;5.80;1.00;;;;;;6259846;28;20372;-52
2022/03/27 05:26:14;;;;;;;21.50;19.30;;;5.90;1.00;;;;;;6259799;28;20246;-53
2022/03/27 05:29:18;;;;;;;20.23;18.20;;;6.20;1.00;;;;;;6262992;28;20238;-52
2022/03/27 05:32:21;;;;;;;21.73;19.60;;;5.90;1.00;;;;;;6261691;28;20230;-51
2022/03/27 05:35:29;;;;;;;22.80;20.70;;;6.10;1.00;;;;;;6258347;28;20332;-51
2022/03/27 05:38:38;;;;;;;25.40;22.70;;;6.10;1.00;;;;;;6259625;28;20620;-52
2022/03/27 05:41:40;;;;;;;23.63;21.23;;;6.00;1.00;;;;;;6261178;28;20248;-52
2022/03/27 05:44:48;;;;;;;23.40;21.03;;;5.60;1.00;;;;;;6260053;28;20670;-52
2022/03/27 05:47:51;;;;;;;27.17;24.23;;;6.10;1.00;;;;;;6258312;28;20235;-52
2022/03/27 05:50:54;;;;;;;24.10;21.50;;;6.20;1.00;;;;;;6258490;28;20301;-53
2022/03/27 05:53:57;;;;;;;28.57;24.53;;;6.50;1.00;;;;;;6243646;28;20241;-53
2022/03/27 05:57:00;;;;;;;29.27;24.50;;;6.30;1.00;;;;;;6256898;28;20608;-50
2022/03/27 06:00:05;;;;;;;28.23;24.57;;;6.50;1.00;;;;;;6254879;28;20780;-53
2022/03/27 06:03:08;;;;;;;27.27;24.33;;;6.30;1.00;;;;;;6273163;28;20373;-52
2022/03/27 06:06:11;;;;;;;23.30;20.97;;;6.50;1.00;;;;;;6270036;28;20241;-52
2022/03/27 06:09:14;;;;;;;29.23;24.43;;;6.40;1.00;;;;;;6274068;28;20620;-52
2022/03/27 06:12:16;;;;;;;27.23;24.30;;;6.60;1.00;;;;;;6265306;28;20304;-53
2022/03/27 06:15:21;;;;;;;26.07;23.40;;;6.70;1.00;;;;;;6261189;28;20411;-53
2022/03/27 06:18:25;;;;;;;26.20;23.43;;;6.80;1.00;;;;;;6260325;28;20249;-52
2022/03/27 06:21:28;;;;;;;28.77;23.47;;;6.80;1.00;;;;;;6261906;28;20289;-52
2022/03/27 06:24:30;;;;;;;26.47;23.87;;;6.90;1.00;;;;;;6264208;28;20346;-52
2022/03/27 06:27:33;;;;;;;26.53;23.77;;;6.90;1.00;;;;;;6258497;28;20757;-54
2022/03/27 06:30:37;;;;;;;25.93;23.33;;;7.20;1.00;;;;;;6248605;28;20475;-52
2022/03/27 06:33:40;;;;;;;24.80;22.30;;;7.20;1.00;;;;;;6257777;28;20227;-52
2022/03/27 06:36:43;;;;;;;25.10;22.63;;;7.30;1.00;;;;;;6251504;28;20323;-52
2022/03/27 06:39:48;;;;;;;24.70;22.20;;;7.40;1.00;;;;;;6259521;28;20238;-52
2022/03/27 06:43:04;;;;;;;25.63;23.17;;;7.50;1.00;;;;;;6260960;28;20241;-52
2022/03/27 06:46:13;;;;;;;25.17;22.63;;;7.60;1.00;;;;;;6248853;28;20242;-52
2022/03/27 06:49:16;;;;;;;25.47;22.67;;;7.70;1.00;;;;;;6260434;28;20249;-52
2022/03/27 06:52:19;;;;;;;27.87;25.03;;;7.80;1.00;;;;;;6254947;28;20791;-52
2022/03/27 06:55:23;;;;;;;26.60;24.00;;;7.80;1.00;;;;;;6276488;28;20320;-53
2022/03/27 06:58:25;;;;;;;25.70;23.10;;;7.90;1.00;;;;;;6247652;28;20802;-49
2022/03/27 07:04:50;;;;;;;24.07;21.87;;;8.90;1.00;;;;;;6279835;28;20253;-52
2022/03/27 07:07:53;;;;;;;26.33;23.63;;;9.10;1.00;;;;;;6266192;28;20324;-52
2022/03/27 07:10:56;;;;;;;26.90;24.03;;;9.00;1.00;;;;;;6265662;28;20368;-53
2022/03/27 07:13:59;;;;;;;26.20;23.47;;;9.00;1.00;;;;;;6258302;28;20839;-52
2022/03/27 07:17:03;;;;;;;26.80;24.00;;;9.00;1.00;;;;;;6256332;28;20233;-52
2022/03/27 07:20:07;;;;;;;27.70;24.70;;;9.00;1.00;;;;;;6258419;28;20479;-52
2022/03/27 07:23:11;;;;;;;24.80;22.23;;;9.00;1.00;;;;;;6261450;28;20234;-54
2022/03/27 07:26:17;;;;;;;18.77;16.87;;;9.30;1.00;;;;;;6257454;28;20242;-52
2022/03/27 07:29:35;;;;;;;19.33;17.00;;;9.70;1.00;;;;;;6254007;28;20269;-52
2022/03/27 07:32:40;;;;;;;18.07;16.30;;;9.90;1.00;;;;;;6256122;28;20380;-52
2022/03/27 07:35:44;;;;;;;20.07;17.93;;;9.90;1.00;;;;;;6259523;28;20372;-51
2022/03/27 07:38:46;;;;;;;20.17;18.10;;;9.80;1.00;;;;;;6257709;28;20356;-52
2022/03/27 07:41:49;;;;;;;20.13;18.33;;;9.70;1.00;;;;;;6255094;28;20880;-53
2022/03/27 07:44:52;;;;;;;20.77;18.70;;;9.80;1.00;;;;;;6257180;28;20514;-51
2022/03/27 07:47:57;;;;;;;19.83;17.93;;;9.70;1.00;;;;;;6257149;28;20317;-53
2022/03/27 07:51:01;;;;;;;21.27;19.10;;;9.60;1.00;;;;;;6269832;28;20359;-51
2022/03/27 07:54:04;;;;;;;21.77;19.57;;;9.60;1.00;;;;;;6257354;28;20603;-51
2022/03/27 07:57:07;;;;;;;21.67;19.57;;;9.50;1.00;;;;;;6278623;28;20264;-51
2022/03/27 08:00:11;;;;;;;20.33;18.13;;;9.60;1.00;;;;;;6257861;28;20322;-51
2022/03/27 08:03:18;;;;;;;22.03;19.47;;;9.70;1.00;;;;;;6257487;28;20238;-53
2022/03/27 08:06:21;;;;;;;21.80;19.50;;;9.90;1.00;;;;;;6255574;28;20319;-52
2022/03/27 08:09:27;;;;;;;21.27;19.00;;;10.00;1.00;;;;;;6252857;28;20376;-52
2022/03/27 08:12:30;;;;;;;20.33;18.33;;;10.10;1.00;;;;;;6259228;28;20845;-53
2022/03/27 08:15:33;;;;;;;20.97;18.87;;;10.30;1.00;;;;;;6259549;28;20729;-53
2022/03/27 08:18:37;;;;;;;20.83;18.80;;;10.40;1.00;;;;;;6256614;28;20246;-53
2022/03/27 08:21:40;;;;;;;21.30;18.73;;;10.50;1.00;;;;;;6259269;28;20571;-54
2022/03/27 08:24:43;;;;;;;20.00;18.00;;;10.80;1.00;;;;;;6268082;28;20697;-54
2022/03/27 08:27:46;;;;;;;19.53;17.70;;;10.80;1.00;;;;;;6264543;28;20230;-52
2022/03/27 08:30:49;;;;;;;19.07;17.37;;;10.90;1.00;;;;;;6263593;28;20241;-52
2022/03/27 08:33:53;;;;;;;20.23;18.27;;;11.00;1.00;;;;;;6250834;28;20333;-54
2022/03/27 08:36:57;;;;;;;20.83;18.83;;;11.20;1.00;;;;;;6258328;28;20310;-52
2022/03/27 08:40:00;;;;;;;19.20;17.50;;;11.30;1.00;;;;;;6264646;28;20229;-52
2022/03/27 08:43:03;;;;;;;19.67;17.87;;;11.40;1.00;;;;;;6257010;28;20383;-53
2022/03/27 08:46:05;;;;;;;19.27;17.33;;;11.70;1.00;;;;;;6253154;28;20899;-52
2022/03/27 08:49:33;;;;;;;15.37;13.97;;;11.80;1.00;;;;;;6252568;28;20315;-52
2022/03/27 08:52:48;;;;;;;14.87;13.57;;;11.90;1.00;;;;;;6253494;28;20316;-52
2022/03/27 08:56:00;;;;;;;15.47;14.17;;;12.00;1.00;;;;;;6252084;28;20319;-52
2022/03/27 08:59:08;;;;;;;15.50;14.17;;;12.00;1.00;;;;;;6253509;28;20222;-53
2022/03/27 09:02:13;;;;;;;12.43;11.43;;;12.20;1.00;;;;;;6250946;28;20298;-53
2022/03/27 09:05:20;;;;;;;12.97;11.90;;;12.20;1.00;;;;;;6249841;28;20287;-54
2022/03/27 09:08:23;;;;;;;13.07;12.03;;;12.20;1.00;;;;;;6252403;28;20814;-53
2022/03/27 09:11:27;;;;;;;13.90;12.80;;;12.20;1.00;;;;;;6250678;28;20238;-54
2022/03/27 09:14:33;;;;;;;13.67;12.63;;;12.30;1.00;;;;;;6252297;28;20234;-54
2022/03/27 09:17:55;;;;;;;13.47;12.37;;;12.40;1.00;;;;;;6256455;28;20352;-52
2022/03/27 09:21:02;;;;;;;13.47;12.27;;;12.50;1.00;;;;;;6254742;28;20241;-54
2022/03/27 09:24:05;;;;;;;13.83;12.37;;;12.50;1.00;;;;;;6252513;28;20233;-54
2022/03/27 09:27:08;;;;;;;13.57;12.37;;;12.70;1.00;;;;;;6266353;28;20265;-53
2022/03/27 09:30:13;;;;;;;13.03;11.80;;;12.80;1.00;;;;;;6245535;28;20702;-53
2022/03/27 09:33:33;;;;;;;14.10;12.90;;;13.10;1.00;;;;;;6261478;28;20707;-53
2022/03/27 09:36:42;;;;;;;13.23;12.13;;;13.30;1.00;;;;;;6265553;28;20242;-53
2022/03/27 09:39:56;;;;;;;13.13;12.03;;;13.70;1.00;;;;;;6264023;28;20230;-54
2022/03/27 09:43:10;;;;;;;12.50;11.47;;;14.00;1.00;;;;;;6267700;28;20320;-53
2022/03/27 09:46:13;;;;;;;13.57;12.40;;;14.20;1.00;;;;;;6260991;28;20269;-53
2022/03/27 09:49:17;;;;;;;12.53;11.53;;;14.20;1.00;;;;;;6255160;28;20601;-54
2022/03/27 09:52:24;;;;;;;12.63;11.73;;;14.20;1.00;;;;;;6258346;28;20577;-53
2022/03/27 09:55:27;;;;;;;12.83;11.83;;;13.90;1.00;;;;;;6256371;28;20246;-53
2022/03/27 09:58:34;;;;;;;13.67;12.40;;;14.00;1.00;;;;;;6258626;28;20299;-58
2022/03/27 10:01:37;;;;;;;13.87;12.77;;;14.10;1.00;;;;;;6271754;28;20316;-52
2022/03/27 10:04:52;;;;;;;15.20;13.90;;;14.20;1.00;;;;;;6264293;28;20242;-53
2022/03/27 10:07:56;;;;;;;14.80;13.60;;;14.10;1.00;;;;;;6274279;28;20390;-54
2022/03/27 10:11:00;;;;;;;15.67;14.17;;;13.90;1.00;;;;;;6286054;28;20257;-53
2022/03/27 10:14:04;;;;;;;13.73;12.63;;;13.60;1.00;;;;;;6271193;28;20512;-54
2022/03/27 10:17:10;;;;;;;15.23;13.83;;;13.70;1.00;;;;;;6261559;28;20268;-54
2022/03/27 10:20:15;;;;;;;14.77;13.57;;;13.70;1.00;;;;;;6260784;28;20686;-54
2022/03/27 10:23:23;;;;;;;13.13;12.13;;;13.70;1.00;;;;;;6246149;28;20229;-54
2022/03/27 10:26:26;;;;;;;15.20;12.50;;;14.00;1.00;;;;;;6263004;28;20249;-53
2022/03/27 10:29:30;;;;;;;13.23;12.23;;;14.30;1.00;;;;;;6259514;28;20656;-51
2022/03/27 10:32:34;;;;;;;12.50;11.13;;;14.30;1.00;;;;;;6255477;28;20405;-53
2022/03/27 10:35:46;;;;;;;12.13;11.13;;;14.70;1.00;;;;;;6261534;28;20265;-53
2022/03/27 10:38:57;;;;;;;14.53;10.53;;;14.90;1.00;;;;;;6260496;28;20297;-54
2022/03/27 10:42:09;;;;;;;10.23;9.50;;;15.00;1.00;;;;;;6257554;28;20234;-54
2022/03/27 10:45:17;;;;;;;11.17;10.37;;;15.30;1.00;;;;;;6270677;28;20328;-53
2022/03/27 10:48:21;;;;;;;10.97;9.87;;;15.50;1.00;;;;;;6262803;28;20391;-54
2022/03/27 10:51:36;;;;;;;11.77;10.77;;;15.70;1.00;;;;;;6269014;28;20303;-54
2022/03/27 10:55:01;;;;;;;9.20;8.57;;;15.70;1.00;;;;;;6259366;28;20738;-53
2022/03/27 10:58:28;;;;;;;9.50;8.67;;;15.70;1.00;;;;;;6257429;28;20252;-52
2022/03/27 11:01:40;;;;;;;8.30;7.63;;;15.70;1.00;;;;;;6257456;28;20313;-54
2022/03/27 11:04:44;;;;;;;8.67;8.17;;;15.90;1.00;;;;;;6258023;28;20614;-54
2022/03/27 11:07:46;;;;;;;8.07;7.57;;;16.10;1.00;;;;;;6258510;28;20234;-53
2022/03/27 11:10:55;;;;;;;8.40;7.83;;;16.30;1.00;;;;;;6279532;28;20613;-53
2022/03/27 11:14:03;;;;;;;9.63;9.00;;;16.30;1.00;;;;;;6256753;28;20313;-53
2022/03/27 11:17:14;;;;;;;10.93;10.17;;;16.30;1.00;;;;;;6255340;28;20242;-54
2022/03/27 11:20:54;;;;;;;10.20;9.50;;;16.20;1.00;;;;;;6259199;28;20312;-53
2022/03/27 11:24:26;;;;;;;10.40;9.50;;;16.10;1.00;;;;;;6255692;28;20617;-54
2022/03/27 11:27:55;;;;;;;10.40;9.70;;;15.90;1.00;;;;;;6264088;28;20260;-54
2022/03/27 11:31:20;;;;;;;10.40;9.67;;;15.80;1.00;;;;;;6270566;28;20370;-54
2022/03/27 11:34:26;;;;;;;9.80;9.07;;;15.70;1.00;;;;;;6281177;28;20387;-53
2022/03/27 11:37:28;;;;;;;10.30;9.40;;;15.60;1.00;;;;;;6282351;28;20267;-53
2022/03/27 11:40:38;;;;;;;9.83;9.10;;;15.50;1.00;;;;;;6280764;28;20244;-54
2022/03/27 11:43:43;;;;;;;8.67;7.90;;;15.60;1.00;;;;;;6279309;28;20627;-59
2022/03/27 11:46:49;;;;;;;8.70;8.00;;;15.70;1.00;;;;;;6268500;28;20824;-53
2022/03/27 11:49:54;;;;;;;8.70;8.00;;;15.70;1.00;;;;;;6276739;28;20230;-54
2022/03/27 11:53:02;;;;;;;7.60;7.13;;;15.90;1.00;;;;;;6274221;28;20234;-54
2022/03/27 11:56:07;;;;;;;8.00;7.20;;;15.80;1.00;;;;;;6277135;28;20290;-53
2022/03/27 11:59:12;;;;;;;7.03;6.63;;;15.80;1.00;;;;;;6276976;28;20383;-57
2022/03/27 12:02:15;;;;;;;6.70;6.27;;;15.90;1.00;;;;;;6285529;28;20649;-53
2022/03/27 12:05:18;;;;;;;7.07;5.70;;;16.00;1.00;;;;;;6278905;28;20257;-54
2022/03/27 12:08:33;;;;;;;7.87;7.27;;;16.00;1.00;;;;;;6281452;28;20669;-54
2022/03/27 12:11:35;;;;;;;6.50;6.10;;;15.90;1.00;;;;;;6272286;28;20576;-52
2022/03/27 12:14:53;;;;;;;6.20;5.70;;;16.00;1.00;;;;;;6274634;28;20548;-52
2022/03/27 12:17:57;;;;;;;5.10;4.90;;;16.30;1.00;;;;;;6273271;28;20320;-54
2022/03/27 12:21:03;;;;;;;7.23;5.57;;;16.20;1.00;;;;;;6279008;28;20233;-54
2022/03/27 12:24:06;;;;;;;6.27;5.87;;;16.10;1.00;;;;;;6290276;28;20276;-53
2022/03/27 12:30:47;;;;;;;5.73;5.23;;;16.10;1.00;;;;;;6282523;28;20892;-56
2022/03/27 12:33:51;;;;;;;5.30;4.90;;;16.30;1.00;;;;;;6270969;28;20286;-54
2022/03/27 12:37:12;;;;;;;5.87;5.40;;;16.60;1.00;;;;;;6277996;28;20895;-53
2022/03/27 12:40:15;;;;;;;6.00;5.60;;;16.70;1.00;;;;;;6281904;28;20233;-54
2022/03/27 12:43:18;;;;;;;5.80;5.50;;;16.70;1.00;;;;;;6281669;28;20568;-55
2022/03/27 12:46:25;;;;;;;5.43;5.10;;;16.70;1.00;;;;;;6277455;28;20799;-54
2022/03/27 12:49:28;;;;;;;5.20;5.00;;;16.80;1.00;;;;;;6282170;28;20233;-54
2022/03/27 12:52:31;;;;;;;6.13;5.77;;;16.80;1.00;;;;;;6280629;28;20880;-54
2022/03/27 12:55:43;;;;;;;5.17;4.97;;;16.70;1.00;;;;;;6275035;28;20236;-50
2022/03/27 12:58:46;;;;;;;5.27;5.07;;;16.70;1.00;;;;;;6273380;28;20859;-53
2022/03/27 13:01:51;;;;;;;5.70;5.30;;;16.70;1.00;;;;;;6275998;28;20237;-53
2022/03/27 13:05:00;;;;;;;5.43;5.03;;;17.00;1.00;;;;;;6286199;28;20237;-54
2022/03/27 13:08:04;;;;;;;5.90;5.60;;;17.00;1.00;;;;;;6274336;28;20282;-54
2022/03/27 13:11:10;;;;;;;5.50;5.30;;;16.90;1.00;;;;;;6282232;28;20245;-54
2022/03/27 13:14:14;;;;;;;4.70;4.50;;;17.00;1.00;;;;;;6280719;28;20245;-53
2022/03/27 13:17:25;;;;;;;5.13;4.93;;;16.90;1.00;;;;;;6282940;28;20226;-55
2022/03/27 13:20:34;;;;;;;4.77;4.57;;;17.00;1.00;;;;;;6285534;28;20236;-54
2022/03/27 13:23:41;;;;;;;4.97;4.77;;;16.90;1.00;;;;;;6285038;28;20624;-54
2022/03/27 13:26:47;;;;;;;5.60;5.10;;;16.80;1.00;;;;;;6282448;28;20733;-54
2022/03/27 13:29:49;;;;;;;5.33;5.13;;;16.80;1.00;;;;;;6285707;28;20257;-53
2022/03/27 13:32:56;;;;;;;5.90;5.63;;;17.00;1.00;;;;;;6286275;28;20324;-54
2022/03/27 13:36:00;;;;;;;5.80;5.40;;;17.00;1.00;;;;;;6286547;28;20320;-54
2022/03/27 13:39:05;;;;;;;5.47;5.27;;;17.10;1.00;;;;;;6287110;28;20252;-54
2022/03/27 13:45:30;;;;;;;5.20;5.00;;;17.20;1.00;;;;;;6292192;28;20291;-53
2022/03/27 13:48:34;;;;;;;5.50;5.10;;;16.90;1.00;;;;;;6288530;28;20314;-53
2022/03/27 13:51:37;;;;;;;5.37;5.17;;;17.10;1.00;;;;;;6286044;28;20327;-54
2022/03/27 13:54:39;;;;;;;5.77;5.27;;;17.20;1.00;;;;;;6279759;28;20314;-53
2022/03/27 13:57:42;;;;;;;6.47;6.07;;;17.20;1.00;;;;;;6284287;28;20733;-55
2022/03/27 14:00:45;;;;;;;5.90;5.50;;;17.00;1.00;;;;;;6282472;28;20374;-55
2022/03/27 14:03:49;;;;;;;9.47;5.67;;;17.00;1.00;;;;;;6269558;28;20234;-58
2022/03/27 14:06:52;;;;;;;6.30;5.03;;;17.00;1.00;;;;;;6281890;28;20228;-57
2022/03/27 14:09:55;;;;;;;5.43;5.07;;;17.00;1.00;;;;;;6283033;28;20375;-51
2022/03/27 14:12:58;;;;;;;24.67;6.03;;;17.10;1.00;;;;;;6278843;28;20234;-54
2022/03/27 14:16:01;;;;;;;6.30;5.50;;;17.10;1.00;;;;;;6285264;28;20302;-55
2022/03/27 14:19:07;;;;;;;5.80;5.50;;;17.10;1.00;;;;;;6285450;28;20298;-55
2022/03/27 14:22:10;;;;;;;5.97;5.67;;;17.00;1.00;;;;;;6289233;28;20229;-54
2022/03/27 14:25:13;;;;;;;5.10;4.80;;;17.00;1.00;;;;;;6280191;28;20600;-55
2022/03/27 14:28:19;;;;;;;4.93;4.73;;;17.00;1.00;;;;;;6292252;28;20673;-55
2022/03/27 14:31:23;;;;;;;5.27;5.07;;;17.10;1.00;;;;;;6288307;28;20598;-58
2022/03/27 14:34:28;;;;;;;5.77;5.47;;;17.20;1.00;;;;;;6278735;28;20242;-56
2022/03/27 14:37:31;;;;;;;5.57;5.20;;;17.30;1.00;;;;;;6274744;28;20476;-55
2022/03/27 14:40:37;;;;;;;6.33;5.40;;;17.30;1.00;;;;;;6285262;28;20229;-55
2022/03/27 14:43:40;;;;;;;5.80;5.30;;;17.30;1.00;;;;;;6283816;28;20313;-55
2022/03/27 14:46:44;;;;;;;5.20;4.90;;;17.40;1.00;;;;;;6285117;28;20580;-57
2022/03/27 14:49:50;;;;;;;5.30;4.80;;;17.40;1.00;;;;;;6283860;28;20460;-56
2022/03/27 14:52:53;;;;;;;5.20;4.80;;;17.40;1.00;;;;;;6281433;28;20242;-55
2022/03/27 14:56:00;;;;;;;4.47;4.23;;;17.40;1.00;;;;;;6278483;28;20355;-54
2022/03/27 14:59:05;;;;;;;4.20;3.93;;;17.20;1.00;;;;;;6273644;28;20236;-54
2022/03/27 15:02:10;;;;;;;3.97;3.77;;;17.10;1.00;;;;;;6249251;28;20705;-55
2022/03/27 15:05:14;;;;;;;4.60;4.40;;;17.00;1.00;;;;;;6248459;28;20241;-55
2022/03/27 15:08:17;;;;;;;4.43;4.23;;;16.90;1.00;;;;;;6246092;28;20344;-55
2022/03/27 15:11:20;;;;;;;5.00;4.80;;;16.80;1.00;;;;;;6251888;28;20436;-56
2022/03/27 15:14:23;;;;;;;3.83;3.60;;;17.00;1.00;;;;;;6250738;28;20247;-55
2022/03/27 15:17:26;;;;;;;4.30;4.00;;;17.20;1.00;;;;;;6250443;28;20788;-55
2022/03/27 15:20:31;;;;;;;3.77;3.60;;;17.50;1.00;;;;;;6249114;28;20530;-55
2022/03/27 15:23:34;;;;;;;5.13;3.83;;;17.60;1.00;;;;;;6249632;28;20602;-56
2022/03/27 15:26:37;;;;;;;4.60;4.30;;;17.50;1.00;;;;;;6249506;28;20808;-57
2022/03/27 15:29:41;;;;;;;4.50;4.30;;;17.20;1.00;;;;;;6253432;28;20332;-55
2022/03/27 15:32:45;;;;;;;4.90;4.60;;;16.90;1.00;;;;;;6252294;28;20310;-55
2022/03/27 15:35:49;;;;;;;4.73;4.53;;;16.60;1.00;;;;;;6252634;28;20311;-55
2022/03/27 15:38:53;;;;;;;4.80;4.50;;;16.50;1.00;;;;;;6252289;28;20290;-56
2022/03/27 15:41:58;;;;;;;5.37;4.80;;;16.40;1.00;;;;;;6256297;28;20249;-54
2022/03/27 15:45:02;;;;;;;4.53;4.27;;;16.30;1.00;;;;;;6257886;28;20251;-53
2022/03/27 15:48:06;;;;;;;4.80;4.50;;;16.20;1.00;;;;;;6277786;28;20377;-53
2022/03/27 15:51:10;;;;;;;5.07;4.47;;;16.10;1.00;;;;;;6280627;28;20382;-55
2022/03/27 15:54:13;;;;;;;4.63;4.40;;;15.90;1.00;;;;;;6278415;28;20254;-55
2022/03/27 15:57:15;;;;;;;5.30;5.07;;;16.10;1.00;;;;;;6278907;28;20825;-53
2022/03/27 16:00:18;;;;;;;4.50;4.30;;;15.80;1.00;;;;;;6283127;28;20692;-54
2022/03/27 16:03:21;;;;;;;4.30;4.00;;;15.80;1.00;;;;;;6280161;28;20234;-54
2022/03/27 16:06:26;;;;;;;4.73;4.40;;;15.60;1.00;;;;;;6283821;28;20249;-54
2022/03/27 16:09:29;;;;;;;6.30;4.53;;;15.50;1.00;;;;;;6280288;28;20229;-54
2022/03/27 16:12:32;;;;;;;4.67;4.27;;;15.50;1.00;;;;;;6279989;28;20387;-55
2022/03/27 16:15:35;;;;;;;5.43;5.03;;;15.40;1.00;;;;;;6280765;28;20324;-53
2022/03/27 16:18:39;;;;;;;4.33;4.10;;;15.40;1.00;;;;;;6279824;28;20378;-54
2022/03/27 16:21:44;;;;;;;4.77;4.57;;;15.30;1.00;;;;;;6282229;28;20260;-54